createdAt,value
2023-05-21T00:00:51.783Z,10.90
2023-05-21T00:03:42.262Z,11.30
2023-05-21T00:06:30.005Z,9.70
2023-05-21T00:09:17.079Z,9.50
2023-05-21T00:12:05.231Z,9.30
2023-05-21T00:14:52.217Z,10.50
2023-05-21T00:17:40.203Z,10.30
2023-05-21T00:20:29.336Z,10.60
2023-05-21T00:23:18.787Z,9.70
2023-05-21T00:26:05.651Z,9.50
2023-05-21T00:28:53.152Z,10.70
2023-05-21T00:31:41.019Z,10.20
2023-05-21T00:34:29.699Z,10.70
2023-05-21T00:37:17.372Z,9.40
2023-05-21T00:40:11.687Z,9.90
2023-05-21T00:42:59.029Z,10.70
2023-05-21T00:45:47.638Z,11.30
2023-05-21T00:48:35.098Z,10.30
2023-05-21T00:51:22.223Z,10.20
2023-05-21T00:54:10.242Z,10.90
2023-05-21T00:56:58.281Z,9.60
2023-05-21T00:59:45.723Z,9.70
2023-05-21T01:02:34.863Z,10.30
2023-05-21T01:05:23.126Z,9.50
2023-05-21T01:08:10.498Z,9.80
2023-05-21T01:10:57.600Z,8.30
2023-05-21T01:13:45.286Z,8.40
2023-05-21T01:16:32.665Z,8.00
2023-05-21T01:19:21.315Z,7.80
2023-05-21T01:22:09.826Z,8.80
2023-05-21T01:24:57.459Z,7.50
2023-05-21T01:27:45.070Z,7.00
2023-05-21T01:30:32.906Z,7.50
2023-05-21T01:33:23.579Z,8.10
2023-05-21T01:36:18.361Z,8.00
2023-05-21T01:39:09.402Z,7.50
2023-05-21T01:41:57.582Z,8.20
2023-05-21T01:44:46.157Z,7.60
2023-05-21T01:47:33.219Z,7.60
2023-05-21T01:50:22.215Z,7.00
2023-05-21T01:53:09.261Z,7.00
2023-05-21T01:55:56.542Z,8.10
2023-05-21T01:58:44.182Z,8.60
2023-05-21T02:01:32.000Z,7.30
2023-05-21T02:04:18.872Z,6.20
2023-05-21T02:07:06.927Z,6.60
2023-05-21T02:09:54.472Z,6.70
2023-05-21T02:12:43.140Z,7.20
2023-05-21T02:15:30.806Z,8.30
2023-05-21T02:18:18.601Z,7.30
2023-05-21T02:21:05.680Z,7.40
2023-05-21T02:23:53.179Z,6.60
2023-05-21T02:26:40.394Z,7.20
2023-05-21T02:29:27.435Z,7.20
2023-05-21T02:32:15.178Z,6.50
2023-05-21T02:35:06.612Z,6.90
2023-05-21T02:37:54.605Z,6.90
2023-05-21T02:40:41.808Z,7.50
2023-05-21T02:43:28.894Z,6.10
2023-05-21T02:46:16.754Z,6.10
2023-05-21T02:49:04.424Z,6.10
2023-05-21T02:51:52.225Z,6.30
2023-05-21T02:54:39.630Z,6.20
2023-05-21T02:57:27.299Z,6.40
2023-05-21T03:00:14.864Z,6.40
2023-05-21T03:03:02.804Z,6.10
2023-05-21T03:05:50.605Z,6.00
2023-05-21T03:08:41.136Z,6.60
2023-05-21T03:11:28.814Z,5.90
2023-05-21T03:14:16.789Z,4.80
2023-05-21T03:17:08.029Z,6.20
2023-05-21T03:19:56.098Z,4.80
2023-05-21T03:22:44.257Z,5.70
2023-05-21T03:25:31.701Z,5.20
2023-05-21T03:28:19.289Z,6.20
2023-05-21T03:31:08.084Z,6.10
2023-05-21T03:33:55.078Z,4.70
2023-05-21T03:36:44.742Z,5.60
2023-05-21T03:39:33.484Z,5.70
2023-05-21T03:42:20.497Z,6.00
2023-05-21T03:45:11.736Z,5.40
2023-05-21T03:48:34.109Z,5.60
2023-05-21T03:51:23.043Z,6.20
2023-05-21T03:54:10.791Z,6.30
2023-05-21T03:56:57.966Z,5.60
2023-05-21T03:59:46.031Z,6.00
2023-05-21T04:02:33.595Z,6.20
2023-05-21T04:05:21.164Z,5.10
2023-05-21T04:08:08.406Z,5.40
2023-05-21T04:10:56.078Z,5.90
2023-05-21T04:13:43.164Z,5.60
2023-05-21T04:16:31.309Z,5.40
2023-05-21T04:19:19.161Z,5.70
2023-05-21T04:22:07.303Z,6.90
2023-05-21T04:24:54.763Z,5.30
2023-05-21T04:27:48.077Z,4.80
2023-05-21T04:30:35.899Z,5.70
2023-05-21T04:33:24.554Z,5.00
2023-05-21T04:36:12.121Z,4.30
2023-05-21T04:39:00.116Z,5.10
2023-05-21T04:41:51.795Z,5.20
2023-05-21T04:44:40.558Z,4.70
2023-05-21T04:47:35.828Z,5.10
2023-05-21T04:50:24.586Z,5.40
2023-05-21T04:53:12.442Z,4.80
2023-05-21T04:56:00.726Z,3.80
2023-05-21T04:58:48.311Z,4.80
2023-05-21T05:01:35.559Z,4.30
2023-05-21T05:04:22.702Z,5.40
2023-05-21T05:07:10.849Z,5.70
2023-05-21T05:09:58.751Z,4.00
2023-05-21T05:12:46.750Z,5.60
2023-05-21T05:15:34.696Z,3.90
2023-05-21T05:18:23.354Z,5.50
2023-05-21T05:21:11.256Z,4.50
2023-05-21T05:23:58.539Z,4.40
2023-05-21T05:26:48.353Z,4.10
2023-05-21T05:29:36.965Z,4.20
2023-05-21T05:32:24.403Z,4.60
2023-05-21T05:35:12.048Z,4.20
2023-05-21T05:37:59.141Z,4.60
2023-05-21T05:40:46.312Z,4.50
2023-05-21T05:43:33.464Z,4.30
2023-05-21T05:46:21.929Z,4.30
2023-05-21T05:49:09.679Z,3.70
2023-05-21T05:51:57.230Z,4.30
2023-05-21T05:54:44.599Z,3.90
2023-05-21T05:57:32.748Z,3.80
2023-05-21T06:00:22.440Z,4.00
2023-05-21T06:03:12.110Z,4.50
2023-05-21T06:05:59.524Z,5.00
2023-05-21T06:08:47.026Z,5.10
2023-05-21T06:11:33.888Z,4.90
2023-05-21T06:14:21.256Z,3.90
2023-05-21T06:17:09.081Z,4.50
2023-05-21T06:19:56.684Z,4.10
2023-05-21T06:22:46.975Z,4.30
2023-05-21T06:25:34.465Z,5.30
2023-05-21T06:28:22.103Z,5.30
2023-05-21T06:31:09.585Z,4.70
2023-05-21T06:33:58.453Z,5.60
2023-05-21T06:36:47.611Z,5.30
2023-05-21T06:39:34.717Z,4.90
2023-05-21T06:42:22.588Z,6.50
2023-05-21T06:45:24.209Z,5.20
2023-05-21T06:48:16.991Z,5.40
2023-05-21T06:51:04.239Z,5.80
2023-05-21T06:53:52.007Z,7.20
2023-05-21T06:56:39.319Z,7.10
2023-05-21T06:59:26.692Z,6.40
2023-05-21T07:02:14.576Z,5.70
2023-05-21T07:05:01.618Z,6.60
2023-05-21T07:07:49.210Z,5.20
2023-05-21T07:10:36.106Z,5.30
2023-05-21T07:13:23.309Z,6.20
2023-05-21T07:16:11.298Z,5.90
2023-05-21T07:19:00.487Z,5.80
2023-05-21T07:21:49.160Z,5.50
2023-05-21T07:24:37.095Z,6.70
2023-05-21T07:27:26.252Z,6.70
2023-05-21T07:30:15.295Z,6.10
2023-05-21T07:33:02.474Z,5.40
2023-05-21T07:35:50.043Z,7.10
2023-05-21T07:38:40.147Z,6.80
2023-05-21T07:41:27.958Z,6.30
2023-05-21T07:44:14.851Z,5.20
2023-05-21T07:47:03.950Z,7.50
2023-05-21T07:49:51.251Z,6.40
2023-05-21T07:52:39.424Z,7.10
2023-05-21T07:55:26.673Z,6.90
2023-05-21T07:58:16.429Z,5.20
2023-05-21T08:01:03.551Z,6.40
2023-05-21T08:03:52.447Z,6.30
2023-05-21T08:06:40.302Z,6.70
2023-05-21T08:09:27.298Z,4.90
2023-05-21T08:12:16.216Z,3.60
2023-05-21T08:15:04.381Z,3.70
2023-05-21T08:17:52.478Z,3.10
2023-05-21T08:20:41.659Z,5.60
2023-05-21T08:23:29.515Z,3.40
2023-05-21T08:26:18.220Z,3.70
2023-05-21T08:29:05.598Z,3.60
2023-05-21T08:31:52.998Z,4.70
2023-05-21T08:34:39.984Z,4.40
2023-05-21T08:37:39.281Z,3.20
2023-05-21T08:40:51.425Z,3.80
2023-05-21T08:43:39.817Z,3.20
2023-05-21T08:46:28.170Z,2.50
2023-05-21T08:49:17.727Z,2.60
2023-05-21T08:52:05.002Z,2.30
2023-05-21T08:54:53.798Z,2.10
2023-05-21T08:57:44.152Z,2.60
2023-05-21T09:00:33.052Z,2.20
2023-05-21T09:03:22.527Z,2.50
2023-05-21T09:06:14.225Z,1.70
2023-05-21T09:09:04.894Z,2.60
2023-05-21T09:12:03.644Z,2.80
2023-05-21T09:14:51.075Z,2.50
2023-05-21T09:17:41.121Z,2.60
2023-05-21T09:20:42.334Z,2.50
2023-05-21T09:23:30.373Z,2.90
2023-05-21T09:26:17.789Z,1.90
2023-05-21T09:29:05.059Z,2.00
2023-05-21T09:31:52.124Z,5.00
2023-05-21T09:34:39.603Z,5.30
2023-05-21T09:37:28.128Z,3.10
2023-05-21T09:40:19.748Z,2.60
2023-05-21T09:43:07.407Z,2.30
2023-05-21T09:45:55.864Z,3.10
2023-05-21T09:48:46.436Z,2.20
2023-05-21T09:51:38.716Z,6.20
2023-05-21T09:54:30.782Z,15.00
2023-05-21T09:57:23.348Z,2.40
2023-05-21T10:00:19.193Z,2.50
2023-05-21T10:03:08.171Z,2.50
2023-05-21T10:05:55.345Z,2.00
2023-05-21T10:08:44.915Z,2.60
2023-05-21T10:11:35.062Z,1.90
2023-05-21T10:14:23.558Z,2.40
2023-05-21T10:17:12.615Z,1.70
2023-05-21T10:19:59.981Z,2.30
2023-05-21T10:22:47.854Z,2.00
2023-05-21T10:25:35.190Z,2.90
2023-05-21T10:28:22.757Z,1.90
2023-05-21T10:31:11.627Z,2.50
2023-05-21T10:33:59.443Z,2.70
2023-05-21T10:36:49.178Z,2.50
2023-05-21T10:39:36.854Z,2.50
2023-05-21T10:42:24.219Z,2.10
2023-05-21T10:45:27.049Z,1.90
2023-05-21T10:48:27.692Z,2.20
2023-05-21T10:51:24.694Z,2.40
2023-05-21T10:54:15.086Z,2.10
2023-05-21T10:59:49.869Z,2.30
2023-05-21T11:02:37.517Z,2.40
2023-05-21T11:06:06.730Z,1.60
2023-05-21T11:08:55.475Z,1.80
2023-05-21T11:11:48.790Z,2.00
2023-05-21T11:14:35.912Z,2.00
2023-05-21T11:17:43.308Z,2.10
2023-05-21T11:20:34.808Z,2.30
2023-05-21T11:23:22.374Z,1.80
2023-05-21T11:26:09.622Z,2.30
2023-05-21T11:29:06.123Z,2.50
2023-05-21T11:32:01.732Z,2.40
2023-05-21T11:34:49.633Z,2.30
2023-05-21T11:37:38.174Z,2.40
2023-05-21T11:40:27.471Z,2.60
2023-05-21T11:43:14.680Z,2.60
2023-05-21T11:46:02.634Z,2.10
2023-05-21T11:48:50.986Z,2.10
2023-05-21T11:51:41.261Z,2.10
2023-05-21T11:57:18.746Z,1.80
2023-05-21T12:00:14.182Z,2.70
2023-05-21T12:03:02.287Z,1.90
2023-05-21T12:05:50.314Z,1.80
2023-05-21T12:08:38.498Z,1.80
2023-05-21T12:11:26.953Z,1.90
2023-05-21T12:14:14.375Z,2.40
2023-05-21T12:17:02.868Z,1.60
2023-05-21T12:19:54.420Z,2.80
2023-05-21T12:22:43.337Z,2.50
2023-05-21T12:25:32.149Z,2.50
2023-05-21T12:28:18.763Z,2.20
2023-05-21T12:31:06.091Z,2.20
2023-05-21T12:33:53.350Z,2.60
2023-05-21T12:36:46.589Z,2.30
2023-05-21T12:39:34.071Z,1.30
2023-05-21T12:42:25.783Z,2.10
2023-05-21T12:45:12.860Z,1.80
2023-05-21T12:48:03.394Z,1.60
2023-05-21T12:50:52.020Z,2.00
2023-05-21T12:53:39.077Z,1.80
2023-05-21T12:56:26.055Z,2.00
2023-05-21T12:59:14.566Z,1.60
2023-05-21T13:02:02.107Z,1.90
2023-05-21T13:04:55.493Z,2.00
2023-05-21T13:07:46.674Z,2.30
2023-05-21T13:13:21.385Z,2.00
2023-05-21T13:16:08.943Z,2.10
2023-05-21T13:18:56.427Z,2.20
2023-05-21T13:21:43.853Z,2.30
2023-05-21T13:24:31.287Z,2.30
2023-05-21T13:27:18.608Z,2.80
2023-05-21T13:30:07.074Z,2.00
2023-05-21T13:32:53.834Z,1.80
2023-05-21T13:35:41.278Z,2.20
2023-05-21T13:38:28.840Z,2.30
2023-05-21T13:41:15.877Z,1.90
2023-05-21T13:44:03.358Z,2.10
2023-05-21T13:46:51.182Z,2.20
2023-05-21T13:49:39.474Z,2.20
2023-05-21T13:52:26.740Z,2.30
2023-05-21T13:55:16.213Z,2.80
2023-05-21T13:58:03.619Z,2.10
2023-05-21T14:00:50.936Z,2.20
2023-05-21T14:03:37.695Z,2.30
2023-05-21T14:06:25.461Z,2.00
2023-05-21T14:09:12.493Z,2.10
2023-05-21T14:11:59.760Z,2.20
2023-05-21T14:14:49.691Z,3.30
2023-05-21T14:17:37.311Z,2.40
2023-05-21T14:20:24.589Z,2.40
2023-05-21T14:23:11.839Z,2.40
2023-05-21T14:25:59.051Z,3.50
2023-05-21T14:28:46.552Z,3.00
2023-05-21T14:31:33.654Z,2.30
2023-05-21T14:34:21.034Z,2.30
2023-05-21T14:37:08.710Z,2.90
2023-05-21T14:39:56.018Z,2.50
2023-05-21T14:42:43.640Z,2.60
2023-05-21T14:45:33.217Z,2.30
2023-05-21T14:48:23.330Z,1.90
2023-05-21T14:51:10.699Z,2.50
2023-05-21T14:53:58.093Z,2.80
2023-05-21T14:56:44.990Z,2.40
2023-05-21T14:59:32.350Z,2.60
2023-05-21T15:02:20.165Z,2.40
2023-05-21T15:05:07.658Z,2.60
2023-05-21T15:07:56.207Z,2.60
2023-05-21T15:10:43.995Z,2.60
2023-05-21T15:13:31.637Z,2.60
2023-05-21T15:16:19.759Z,2.50
2023-05-21T15:19:07.072Z,2.10
2023-05-21T15:21:53.795Z,1.80
2023-05-21T15:24:41.570Z,2.40
2023-05-21T15:27:28.557Z,2.50
2023-05-21T15:30:15.904Z,2.30
2023-05-21T15:33:02.737Z,2.40
2023-05-21T15:35:50.152Z,2.20
2023-05-21T15:38:37.256Z,2.30
2023-05-21T15:41:24.735Z,2.20
2023-05-21T15:44:11.437Z,2.90
2023-05-21T15:46:58.401Z,2.60
2023-05-21T15:49:45.478Z,2.70
2023-05-21T15:52:32.453Z,2.60
2023-05-21T15:55:19.459Z,2.30
2023-05-21T15:58:06.317Z,2.50
2023-05-21T16:00:53.133Z,2.60
2023-05-21T16:03:40.063Z,2.50
2023-05-21T16:06:28.047Z,3.00
2023-05-21T16:09:15.281Z,2.00
2023-05-21T16:12:02.895Z,2.60
2023-05-21T16:14:53.013Z,2.80
2023-05-21T16:17:39.716Z,2.50
2023-05-21T16:20:27.360Z,2.10
2023-05-21T16:23:14.062Z,2.40
2023-05-21T16:26:01.043Z,2.60
2023-05-21T16:28:48.423Z,2.40
2023-05-21T16:31:36.092Z,2.10
2023-05-21T16:34:23.147Z,3.60
2023-05-21T16:37:10.108Z,2.80
2023-05-21T16:39:56.982Z,2.30
2023-05-21T16:42:44.715Z,3.00
2023-05-21T16:45:38.869Z,2.20
2023-05-21T16:48:26.095Z,2.00
2023-05-21T16:51:13.853Z,2.90
2023-05-21T16:54:02.958Z,2.50
2023-05-21T16:56:49.898Z,2.10
2023-05-21T16:59:37.207Z,2.50
2023-05-21T17:02:24.950Z,2.50
2023-05-21T17:05:12.374Z,2.40
2023-05-21T17:07:59.667Z,2.80
2023-05-21T17:10:46.812Z,2.60
2023-05-21T17:13:34.615Z,2.80
2023-05-21T17:16:21.746Z,2.20
2023-05-21T17:19:09.587Z,2.00
2023-05-21T17:21:56.700Z,3.00
2023-05-21T17:24:48.297Z,2.50
2023-05-21T17:27:36.427Z,2.40
2023-05-21T17:30:23.733Z,2.80
2023-05-21T17:33:12.398Z,2.60
2023-05-21T17:36:01.294Z,2.50
2023-05-21T17:38:49.183Z,2.10
2023-05-21T17:41:36.390Z,2.10
2023-05-21T17:44:23.682Z,2.50
2023-05-21T17:47:10.929Z,2.90
2023-05-21T17:49:58.334Z,3.00
2023-05-21T17:52:46.306Z,2.90
2023-05-21T17:55:33.440Z,2.70
2023-05-21T17:58:21.377Z,2.50
2023-05-21T18:01:09.233Z,2.30
2023-05-21T18:03:57.096Z,2.10
2023-05-21T18:06:44.703Z,2.20
2023-05-21T18:09:32.217Z,2.90
2023-05-21T18:12:19.464Z,2.60
2023-05-21T18:15:07.541Z,2.20
2023-05-21T18:17:56.096Z,2.30
2023-05-21T18:20:44.429Z,3.10
2023-05-21T18:23:31.486Z,2.90
2023-05-21T18:26:19.951Z,2.50
2023-05-21T18:29:10.885Z,2.60
2023-05-21T18:31:58.175Z,3.00
2023-05-21T18:34:45.814Z,2.50
2023-05-21T18:37:32.764Z,2.80
2023-05-21T18:40:23.060Z,3.00
2023-05-21T18:43:11.239Z,2.20
2023-05-21T18:45:58.837Z,2.60
2023-05-21T18:48:46.397Z,3.20
2023-05-21T18:51:34.351Z,3.10
2023-05-21T18:54:21.454Z,3.50
2023-05-21T18:57:08.905Z,3.40
2023-05-21T18:59:55.566Z,4.00
2023-05-21T19:02:44.594Z,3.80
2023-05-21T19:05:32.059Z,4.10
2023-05-21T19:08:20.623Z,4.00
2023-05-21T19:11:07.777Z,4.50
2023-05-21T19:13:54.728Z,3.60
2023-05-21T19:16:41.711Z,4.70
2023-05-21T19:19:28.807Z,4.00
2023-05-21T19:22:15.552Z,3.90
2023-05-21T19:25:05.536Z,3.40
2023-05-21T19:27:52.903Z,3.30
2023-05-21T19:30:40.569Z,4.20
2023-05-21T19:33:29.233Z,3.30
2023-05-21T19:36:18.757Z,3.00
2023-05-21T19:39:05.661Z,2.80
2023-05-21T19:41:53.159Z,3.10
2023-05-21T19:44:42.735Z,3.10
2023-05-21T19:47:30.947Z,3.00
2023-05-21T19:50:18.116Z,2.90
2023-05-21T19:53:05.881Z,2.50
2023-05-21T19:55:53.027Z,3.10
2023-05-21T19:58:40.928Z,3.10
2023-05-21T20:01:30.304Z,2.80
2023-05-21T20:04:17.628Z,2.40
2023-05-21T20:07:04.590Z,3.40
2023-05-21T20:09:52.456Z,2.70
2023-05-21T20:12:39.511Z,3.00
2023-05-21T20:15:26.909Z,2.60
2023-05-21T20:18:15.505Z,2.90
2023-05-21T20:21:06.515Z,2.70
2023-05-21T20:23:53.723Z,3.10
2023-05-21T20:26:41.124Z,2.50
2023-05-21T20:29:27.522Z,2.60
2023-05-21T20:32:14.881Z,2.50
2023-05-21T20:35:03.718Z,2.40
2023-05-21T20:37:52.775Z,2.60
2023-05-21T20:40:39.392Z,2.60
2023-05-21T20:43:26.874Z,2.30
2023-05-21T20:46:13.885Z,3.00
2023-05-21T20:49:01.126Z,2.70
2023-05-21T20:51:48.256Z,2.70
2023-05-21T20:54:35.582Z,2.70
2023-05-21T20:57:26.192Z,2.30
2023-05-21T21:00:15.823Z,3.00
2023-05-21T21:03:03.717Z,2.70
2023-05-21T21:05:52.900Z,2.60
2023-05-21T21:08:40.758Z,3.10
2023-05-21T21:11:28.522Z,2.40
2023-05-21T21:14:15.128Z,2.70
2023-05-21T21:17:02.895Z,3.00
2023-05-21T21:19:49.897Z,2.60
2023-05-21T21:22:36.703Z,2.30
2023-05-21T21:25:23.972Z,2.20
2023-05-21T21:28:11.168Z,2.60
2023-05-21T21:30:58.051Z,1.90
2023-05-21T21:33:44.923Z,2.40
2023-05-21T21:36:32.277Z,3.30
2023-05-21T21:39:19.705Z,2.50
2023-05-21T21:42:06.242Z,2.50
2023-05-21T21:44:53.254Z,2.40
2023-05-21T21:47:40.460Z,3.00
2023-05-21T21:50:27.502Z,2.80
2023-05-21T21:53:14.890Z,2.60
2023-05-21T21:56:02.697Z,2.80
2023-05-21T21:58:49.919Z,2.90
2023-05-21T22:01:37.519Z,2.80
2023-05-21T22:04:25.593Z,2.20
2023-05-21T22:07:17.164Z,2.40
2023-05-21T22:10:04.849Z,3.10
2023-05-21T22:12:52.771Z,3.00
2023-05-21T22:15:40.213Z,2.60
2023-05-21T22:18:40.405Z,2.60
2023-05-21T22:21:29.391Z,3.10
2023-05-21T22:24:30.983Z,3.20
2023-05-21T22:27:19.567Z,2.50
2023-05-21T22:30:06.834Z,2.70
2023-05-21T22:32:54.344Z,3.10
2023-05-21T22:35:41.974Z,3.80
2023-05-21T22:38:28.665Z,3.60
2023-05-21T22:41:15.434Z,2.90
2023-05-21T22:44:02.661Z,3.30
2023-05-21T22:46:49.643Z,3.10
2023-05-21T22:49:38.209Z,3.70
2023-05-21T22:52:25.578Z,4.00
2023-05-21T22:55:12.891Z,4.30
2023-05-21T22:57:59.913Z,3.90
2023-05-21T23:00:47.075Z,4.10
2023-05-21T23:03:35.099Z,4.30
2023-05-21T23:06:22.041Z,5.40
2023-05-21T23:09:10.092Z,6.40
2023-05-21T23:11:57.002Z,5.50
2023-05-21T23:14:44.912Z,5.40
2023-05-21T23:17:32.168Z,4.70
2023-05-21T23:20:21.822Z,5.60
2023-05-21T23:23:09.486Z,5.00
2023-05-21T23:25:57.878Z,5.10
2023-05-21T23:28:45.178Z,5.60
2023-05-21T23:31:33.058Z,5.10
2023-05-21T23:34:20.351Z,4.60
2023-05-21T23:37:07.129Z,4.00
2023-05-21T23:39:53.906Z,4.40
2023-05-21T23:42:40.775Z,4.50
2023-05-21T23:45:28.968Z,3.20
2023-05-21T23:48:16.190Z,3.90
2023-05-21T23:51:04.167Z,3.70
2023-05-21T23:53:50.819Z,3.40
2023-05-21T23:56:38.683Z,4.20
2023-05-21T23:59:25.819Z,3.40
